Time;durP1;ratioP1;P1;durP2;ratioP2;P2;SDS_P1;SDS_P2;PMS_P1;PMS_P2;Temp;Humidity;BMP_temperature;BMP_pressure;BME280_temperature;BME280_humidity;BME280_pressure;Samples;Min_cycle;Max_cycle;Signal;HPM_P1;HPM_P2
2022/07/26 00:00:56;;;;;;;8.40;6.53;;;;;;;;;;4899375;29;20107;-77
2022/07/26 00:03:22;;;;;;;7.82;5.97;;;;;;;;;;4898450;29;20029;-78
2022/07/26 00:05:48;;;;;;;8.20;7.38;;;;;;;;;;4899844;29;20064;-79
2022/07/26 00:08:14;;;;;;;7.75;6.15;;;;;;;;;;4899364;29;20047;-79
2022/07/26 00:10:42;;;;;;;7.22;6.53;;;;;;;;;;4900004;29;20546;-79
2022/07/26 00:13:09;;;;;;;6.97;6.28;;;;;;;;;;4898238;29;20101;-79
2022/07/26 00:15:35;;;;;;;8.35;6.40;;;;;;;;;;4898510;29;20056;-79
2022/07/26 00:18:01;;;;;;;7.78;6.32;;;;;;;;;;4898408;29;20083;-79
2022/07/26 00:20:27;;;;;;;7.25;6.18;;;;;;;;;;4898500;29;20508;-79
2022/07/26 00:22:54;;;;;;;8.85;6.78;;;;;;;;;;4899424;29;20029;-78
2022/07/26 00:25:20;;;;;;;7.70;6.10;;;;;;;;;;4899661;29;20025;-79
2022/07/26 00:27:46;;;;;;;7.57;6.68;;;;;;;;;;4899905;29;20036;-78
2022/07/26 00:30:13;;;;;;;6.93;6.22;;;;;;;;;;4898125;29;20028;-78
2022/07/26 00:32:39;;;;;;;7.60;6.20;;;;;;;;;;4899579;29;20031;-78
2022/07/26 00:35:06;;;;;;;7.13;6.35;;;;;;;;;;4899356;29;20115;-78
2022/07/26 00:37:32;;;;;;;6.50;5.90;;;;;;;;;;4899346;29;20501;-79
2022/07/26 00:39:58;;;;;;;7.20;6.50;;;;;;;;;;4899008;29;20092;-79
2022/07/26 00:42:25;;;;;;;7.43;6.63;;;;;;;;;;4897896;29;20048;-80
2022/07/26 00:44:51;;;;;;;8.95;6.60;;;;;;;;;;4898971;29;20032;-78
2022/07/26 00:47:17;;;;;;;9.50;6.25;;;;;;;;;;4897453;29;20037;-78
2022/07/26 00:49:43;;;;;;;8.25;6.80;;;;;;;;;;4897411;29;20076;-78
2022/07/26 00:52:10;;;;;;;7.50;6.55;;;;;;;;;;4898786;29;20390;-78
2022/07/26 00:54:37;;;;;;;8.30;6.72;;;;;;;;;;4897574;29;20029;-77
2022/07/26 00:57:04;;;;;;;7.03;6.32;;;;;;;;;;4897460;29;20025;-78
2022/07/26 00:59:30;;;;;;;9.02;6.75;;;;;;;;;;4898611;29;20028;-78
2022/07/26 01:01:56;;;;;;;8.40;6.70;;;;;;;;;;4898638;29;20382;-78
2022/07/26 01:04:22;;;;;;;7.45;6.75;;;;;;;;;;4897097;29;20028;-78
2022/07/26 01:06:49;;;;;;;8.10;6.20;;;;;;;;;;4897347;29;20052;-78
2022/07/26 01:09:16;;;;;;;7.30;6.60;;;;;;;;;;4898656;29;20177;-78
2022/07/26 01:11:42;;;;;;;8.60;6.88;;;;;;;;;;4897932;29;20024;-79
2022/07/26 01:14:08;;;;;;;7.70;6.65;;;;;;;;;;4899579;29;20144;-77
2022/07/26 01:16:34;;;;;;;7.63;6.75;;;;;;;;;;4898857;29;20390;-78
2022/07/26 01:19:00;;;;;;;7.90;6.68;;;;;;;;;;4898585;29;20021;-78
2022/07/26 01:21:30;;;;;;;7.97;7.03;;;;;;;;;;4897057;29;20110;-78
2022/07/26 01:23:56;;;;;;;8.00;6.88;;;;;;;;;;4896727;29;20032;-78
2022/07/26 01:26:23;;;;;;;8.07;6.70;;;;;;;;;;4897194;29;20032;-78
2022/07/26 01:28:50;;;;;;;8.55;6.78;;;;;;;;;;4898500;29;20052;-79
2022/07/26 01:31:17;;;;;;;7.95;6.85;;;;;;;;;;4898364;29;20076;-78
2022/07/26 01:33:43;;;;;;;8.15;6.80;;;;;;;;;;4898699;29;20056;-79
2022/07/26 01:36:11;;;;;;;7.45;6.75;;;;;;;;;;4897248;29;20035;-79
2022/07/26 01:38:37;;;;;;;7.72;6.63;;;;;;;;;;4897899;29;20025;-79
2022/07/26 01:41:03;;;;;;;7.72;6.90;;;;;;;;;;4898297;29;20033;-78
2022/07/26 01:43:29;;;;;;;7.53;6.72;;;;;;;;;;4896734;29;20032;-78
2022/07/26 01:45:56;;;;;;;7.03;6.18;;;;;;;;;;4898175;29;20039;-78
2022/07/26 01:48:22;;;;;;;9.27;6.85;;;;;;;;;;4896764;29;20043;-80
2022/07/26 01:50:48;;;;;;;8.77;6.47;;;;;;;;;;4898104;29;20127;-78
2022/07/26 01:53:14;;;;;;;11.35;6.75;;;;;;;;;;4898536;29;20091;-79
2022/07/26 01:55:41;;;;;;;8.63;7.03;;;;;;;;;;4896886;29;20040;-78
2022/07/26 01:58:07;;;;;;;8.02;6.85;;;;;;;;;;4897391;29;20595;-78
2022/07/26 02:00:33;;;;;;;9.05;6.68;;;;;;;;;;4895967;29;20398;-78
2022/07/26 02:03:00;;;;;;;8.75;7.10;;;;;;;;;;4897880;29;20032;-78
2022/07/26 02:05:26;;;;;;;7.95;6.90;;;;;;;;;;4897653;29;20470;-78
2022/07/26 02:07:52;;;;;;;8.63;6.53;;;;;;;;;;4895996;29;20047;-78
2022/07/26 02:10:18;;;;;;;8.98;6.97;;;;;;;;;;4898029;29;20125;-78
2022/07/26 02:12:44;;;;;;;8.60;6.90;;;;;;;;;;4895971;29;20035;-78
2022/07/26 02:15:11;;;;;;;10.18;7.00;;;;;;;;;;4897211;29;20029;-77
2022/07/26 02:17:38;;;;;;;9.30;6.60;;;;;;;;;;4897189;29;20036;-78
2022/07/26 02:20:05;;;;;;;7.97;6.80;;;;;;;;;;4895979;29;20549;-79
2022/07/26 02:22:31;;;;;;;7.60;6.65;;;;;;;;;;4897454;29;20506;-78
2022/07/26 02:24:57;;;;;;;8.10;6.30;;;;;;;;;;4895858;29;20057;-79
2022/07/26 02:27:23;;;;;;;7.88;6.65;;;;;;;;;;4896286;29;20032;-78
2022/07/26 02:29:49;;;;;;;7.97;7.00;;;;;;;;;;4897361;29;20060;-79
2022/07/26 02:32:15;;;;;;;7.30;6.50;;;;;;;;;;4896112;29;20028;-78
2022/07/26 02:34:42;;;;;;;8.27;6.53;;;;;;;;;;4896245;29;20482;-78
2022/07/26 02:37:08;;;;;;;8.98;6.93;;;;;;;;;;4897470;29;20032;-78
2022/07/26 02:39:34;;;;;;;8.45;6.78;;;;;;;;;;4896111;29;20375;-79
2022/07/26 02:42:01;;;;;;;8.82;6.68;;;;;;;;;;4897099;29;20024;-79
2022/07/26 02:44:28;;;;;;;7.60;6.75;;;;;;;;;;4897805;29;20039;-79
2022/07/26 02:46:54;;;;;;;10.13;7.15;;;;;;;;;;4895833;29;20027;-78
2022/07/26 02:49:20;;;;;;;7.90;6.50;;;;;;;;;;4896074;29;20028;-79
2022/07/26 02:51:47;;;;;;;8.23;6.75;;;;;;;;;;4895750;29;20032;-78
2022/07/26 02:54:13;;;;;;;17.60;6.68;;;;;;;;;;4896025;29;20035;-77
2022/07/26 02:56:40;;;;;;;15.73;6.22;;;;;;;;;;4895251;29;20028;-78
2022/07/26 02:59:07;;;;;;;25.75;6.05;;;;;;;;;;4895403;29;20094;-79
2022/07/26 03:01:38;;;;;;;13.65;5.75;;;;;;;;;;4895232;29;20076;-78
2022/07/26 03:04:06;;;;;;;13.65;5.35;;;;;;;;;;4895638;29;20052;-79
2022/07/26 03:06:32;;;;;;;13.85;5.40;;;;;;;;;;4895493;29;20029;-77
2022/07/26 03:08:59;;;;;;;25.88;5.80;;;;;;;;;;4895413;29;20101;-78
2022/07/26 03:11:25;;;;;;;15.45;5.35;;;;;;;;;;4895600;29;20028;-78
2022/07/26 03:13:51;;;;;;;15.75;5.18;;;;;;;;;;4896576;29;20035;-78
2022/07/26 03:16:18;;;;;;;29.25;5.85;;;;;;;;;;4895236;29;20032;-76
2022/07/26 03:18:44;;;;;;;17.00;5.20;;;;;;;;;;4896623;29;20047;-77
2022/07/26 03:21:10;;;;;;;17.65;4.70;;;;;;;;;;4897595;29;20029;-78
2022/07/26 03:23:37;;;;;;;24.48;5.05;;;;;;;;;;4899258;29;20025;-78
2022/07/26 03:26:03;;;;;;;22.42;4.68;;;;;;;;;;4900228;29;20060;-77
2022/07/26 03:28:30;;;;;;;207.18;11.95;;;;;;;;;;4898885;29;20052;-77
2022/07/26 03:30:56;;;;;;;21.52;4.55;;;;;;;;;;4900170;29;20028;-77
2022/07/26 03:33:22;;;;;;;20.50;4.22;;;;;;;;;;4900266;29;20032;-77
2022/07/26 03:35:49;;;;;;;36.63;4.88;;;;;;;;;;4898801;29;20024;-77
2022/07/26 03:38:15;;;;;;;23.25;4.90;;;;;;;;;;4900224;29;20469;-77
2022/07/26 03:40:41;;;;;;;15.07;4.20;;;;;;;;;;4900051;29;20025;-78
2022/07/26 03:43:07;;;;;;;9.90;3.90;;;;;;;;;;4898861;29;20478;-77
2022/07/26 03:45:33;;;;;;;28.88;4.80;;;;;;;;;;4899945;29;20025;-77
2022/07/26 03:47:59;;;;;;;26.58;4.53;;;;;;;;;;4898517;29;20060;-77
2022/07/26 03:50:25;;;;;;;6.60;3.92;;;;;;;;;;4899830;29;20123;-77
2022/07/26 03:52:52;;;;;;;14.02;4.20;;;;;;;;;;4900061;29;20036;-77
2022/07/26 03:58:03;;;;;;;10.27;4.30;;;;;;;;;;4899972;29;20080;-77
2022/07/26 04:00:29;;;;;;;12.77;4.18;;;;;;;;;;4898469;29;20053;-78
2022/07/26 04:02:56;;;;;;;12.95;4.35;;;;;;;;;;4898682;29;20028;-76
2022/07/26 04:05:22;;;;;;;29.67;4.70;;;;;;;;;;4899956;29;20036;-77
2022/07/26 04:07:48;;;;;;;39.28;4.75;;;;;;;;;;4898695;29;20038;-78
2022/07/26 04:10:15;;;;;;;16.63;4.40;;;;;;;;;;4899748;29;20084;-77
2022/07/26 04:12:41;;;;;;;10.88;4.38;;;;;;;;;;4899974;29;20021;-77
2022/07/26 04:15:09;;;;;;;17.48;4.22;;;;;;;;;;4898325;29;20068;-76
2022/07/26 04:17:39;;;;;;;6.88;4.00;;;;;;;;;;4898606;29;20064;-77
2022/07/26 04:20:06;;;;;;;13.32;3.97;;;;;;;;;;4899603;29;20027;-78
2022/07/26 04:22:33;;;;;;;24.55;4.85;;;;;;;;;;4899674;29;20037;-77
2022/07/26 04:24:59;;;;;;;8.85;3.70;;;;;;;;;;4898190;29;20032;-77
2022/07/26 04:27:26;;;;;;;11.57;4.00;;;;;;;;;;4898903;29;20043;-78
2022/07/26 04:29:52;;;;;;;14.77;3.72;;;;;;;;;;4898131;29;20414;-79
2022/07/26 04:32:18;;;;;;;6.50;3.25;;;;;;;;;;4897989;29;20061;-76
2022/07/26 04:34:44;;;;;;;13.10;2.85;;;;;;;;;;4899398;29;20111;-78
2022/07/26 04:37:10;;;;;;;12.45;3.20;;;;;;;;;;4897830;29;20672;-76
2022/07/26 04:39:37;;;;;;;6.18;2.90;;;;;;;;;;4897616;29;20080;-75
2022/07/26 04:42:03;;;;;;;9.25;2.72;;;;;;;;;;4899289;29;20039;-77
2022/07/26 04:44:29;;;;;;;16.63;3.30;;;;;;;;;;4897817;29;20371;-76
2022/07/26 04:46:55;;;;;;;11.25;2.65;;;;;;;;;;4898940;29;20032;-77
2022/07/26 04:49:21;;;;;;;15.40;3.15;;;;;;;;;;4897651;29;20131;-77
2022/07/26 04:51:48;;;;;;;6.60;2.50;;;;;;;;;;4897548;29;20084;-76
2022/07/26 04:54:19;;;;;;;6.03;2.80;;;;;;;;;;4898828;29;20119;-78
2022/07/26 04:56:46;;;;;;;6.63;2.95;;;;;;;;;;4899335;29;20016;-77
2022/07/26 04:59:12;;;;;;;5.57;3.00;;;;;;;;;;4899007;29;20370;-76
2022/07/26 05:01:39;;;;;;;7.00;2.67;;;;;;;;;;4897792;29;20497;-77
2022/07/26 05:04:05;;;;;;;3.95;2.90;;;;;;;;;;4898831;29;20029;-77
2022/07/26 05:06:31;;;;;;;4.80;3.03;;;;;;;;;;4897503;29;20072;-78
2022/07/26 05:08:57;;;;;;;4.95;3.30;;;;;;;;;;4897325;29;20101;-77
2022/07/26 05:11:24;;;;;;;6.85;3.15;;;;;;;;;;4898984;29;20031;-78
2022/07/26 05:13:50;;;;;;;5.35;3.50;;;;;;;;;;4899127;29;20028;-76
2022/07/26 05:16:16;;;;;;;4.20;3.47;;;;;;;;;;4897757;29;20115;-77
2022/07/26 05:18:43;;;;;;;5.75;3.80;;;;;;;;;;4899170;29;20167;-79
2022/07/26 05:21:09;;;;;;;6.97;4.10;;;;;;;;;;4898577;29;20089;-78
2022/07/26 05:23:35;;;;;;;9.27;4.50;;;;;;;;;;4899863;29;20032;-78
2022/07/26 05:26:01;;;;;;;6.18;4.30;;;;;;;;;;4898576;29;20136;-75
2022/07/26 05:28:27;;;;;;;6.88;4.68;;;;;;;;;;4898223;29;20037;-74
2022/07/26 05:30:53;;;;;;;9.13;4.35;;;;;;;;;;4898432;29;20032;-83
2022/07/26 05:33:19;;;;;;;7.18;4.88;;;;;;;;;;4898384;29;20036;-80
2022/07/26 05:35:46;;;;;;;8.52;4.68;;;;;;;;;;4898285;29;20063;-81
2022/07/26 05:38:12;;;;;;;8.02;4.95;;;;;;;;;;4899570;29;20159;-82
2022/07/26 05:40:38;;;;;;;6.68;5.05;;;;;;;;;;4898302;29;20565;-81
2022/07/26 05:43:04;;;;;;;6.60;4.82;;;;;;;;;;4898982;29;20025;-82
2022/07/26 05:45:31;;;;;;;7.93;4.80;;;;;;;;;;4898140;29;20423;-81
2022/07/26 05:47:57;;;;;;;6.00;4.82;;;;;;;;;;4898021;29;20453;-76
2022/07/26 05:50:23;;;;;;;5.93;4.50;;;;;;;;;;4901957;29;20544;-74
2022/07/26 05:52:49;;;;;;;6.75;4.72;;;;;;;;;;4906714;29;20488;-74
2022/07/26 05:55:15;;;;;;;6.93;4.82;;;;;;;;;;4907136;29;20036;-75
2022/07/26 05:57:46;;;;;;;5.63;4.70;;;;;;;;;;4908129;29;20024;-75
2022/07/26 06:00:12;;;;;;;5.50;4.70;;;;;;;;;;4903717;29;20037;-75
2022/07/26 06:02:38;;;;;;;6.50;4.93;;;;;;;;;;4897545;29;20386;-75
2022/07/26 06:05:04;;;;;;;5.45;4.40;;;;;;;;;;4901050;29;20020;-74
2022/07/26 06:07:30;;;;;;;5.15;4.30;;;;;;;;;;4905416;29;20134;-73
2022/07/26 06:09:57;;;;;;;5.22;4.70;;;;;;;;;;4908021;29;20030;-72
2022/07/26 06:12:23;;;;;;;6.50;4.93;;;;;;;;;;4905453;29;20379;-73
2022/07/26 06:14:49;;;;;;;5.60;4.60;;;;;;;;;;4906839;29;20027;-73
2022/07/26 06:17:15;;;;;;;6.65;4.65;;;;;;;;;;4907886;29;20451;-75
2022/07/26 06:19:42;;;;;;;6.38;4.80;;;;;;;;;;4907894;29;20020;-74
2022/07/26 06:22:08;;;;;;;6.43;5.35;;;;;;;;;;4905608;29;20035;-74
2022/07/26 06:24:34;;;;;;;6.57;4.88;;;;;;;;;;4906057;29;20377;-75
2022/07/26 06:27:00;;;;;;;7.40;5.13;;;;;;;;;;4905491;29;20537;-74
2022/07/26 06:29:27;;;;;;;6.65;5.20;;;;;;;;;;4907241;29;20033;-74
2022/07/26 06:31:53;;;;;;;7.03;5.40;;;;;;;;;;4906191;29;20455;-74
2022/07/26 06:34:19;;;;;;;9.48;5.80;;;;;;;;;;4910707;29;20036;-77
2022/07/26 06:36:45;;;;;;;6.70;5.25;;;;;;;;;;4897855;29;20036;-78
2022/07/26 06:39:11;;;;;;;7.05;5.80;;;;;;;;;;4906007;29;20024;-79
2022/07/26 06:41:37;;;;;;;6.60;4.93;;;;;;;;;;4898880;29;20039;-75
2022/07/26 06:44:03;;;;;;;7.38;5.55;;;;;;;;;;4909747;29;20028;-77
2022/07/26 06:46:29;;;;;;;8.30;5.13;;;;;;;;;;4915949;29;20132;-77
2022/07/26 06:48:55;;;;;;;7.25;5.30;;;;;;;;;;4916035;29;20040;-77
2022/07/26 06:51:22;;;;;;;5.97;5.03;;;;;;;;;;4915916;29;20048;-77
2022/07/26 06:53:49;;;;;;;6.70;5.00;;;;;;;;;;4916834;29;20087;-77
2022/07/26 06:56:16;;;;;;;5.50;4.60;;;;;;;;;;4916865;29;20043;-76
2022/07/26 06:58:42;;;;;;;6.53;5.40;;;;;;;;;;4915610;29;20039;-81
2022/07/26 07:01:09;;;;;;;6.68;5.18;;;;;;;;;;4905326;29;20031;-78
2022/07/26 07:03:35;;;;;;;5.90;5.05;;;;;;;;;;4896839;29;20617;-85
2022/07/26 07:06:01;;;;;;;5.68;5.07;;;;;;;;;;4896528;29;20028;-83
2022/07/26 07:08:27;;;;;;;5.85;4.65;;;;;;;;;;4896837;29;20072;-84
2022/07/26 07:10:55;;;;;;;5.80;4.97;;;;;;;;;;4896997;29;20112;-82
2022/07/26 07:13:21;;;;;;;6.20;4.95;;;;;;;;;;4898177;29;20081;-84
2022/07/26 07:15:47;;;;;;;5.97;5.00;;;;;;;;;;4897010;29;20474;-78
2022/07/26 07:18:14;;;;;;;6.93;5.35;;;;;;;;;;4898136;29;20446;-77
2022/07/26 07:20:40;;;;;;;7.13;5.13;;;;;;;;;;4896793;29;20051;-76
2022/07/26 07:23:07;;;;;;;6.95;5.20;;;;;;;;;;4898605;29;20037;-79
2022/07/26 07:25:33;;;;;;;6.00;5.40;;;;;;;;;;4898005;29;20039;-76
2022/07/26 07:27:59;;;;;;;6.57;5.63;;;;;;;;;;4896770;29;20084;-76
2022/07/26 07:30:26;;;;;;;7.45;5.75;;;;;;;;;;4896816;29;20088;-81
2022/07/26 07:32:52;;;;;;;6.35;5.75;;;;;;;;;;4898666;29;20060;-78
2022/07/26 07:35:18;;;;;;;6.28;5.68;;;;;;;;;;4903184;29;20063;-78
2022/07/26 07:37:44;;;;;;;6.75;5.95;;;;;;;;;;4903421;29;20047;-78
2022/07/26 07:40:11;;;;;;;7.53;5.55;;;;;;;;;;4905138;29;20123;-77
2022/07/26 07:42:37;;;;;;;6.50;5.72;;;;;;;;;;4898594;29;20029;-78
2022/07/26 07:45:04;;;;;;;6.53;5.13;;;;;;;;;;4911020;29;20090;-79
2022/07/26 07:47:33;;;;;;;5.80;4.68;;;;;;;;;;4915531;29;20051;-79
2022/07/26 07:49:59;;;;;;;5.60;5.00;;;;;;;;;;4901593;29;20052;-81
2022/07/26 07:52:25;;;;;;;6.18;5.03;;;;;;;;;;4897874;29;20040;-81
2022/07/26 07:54:51;;;;;;;8.05;4.78;;;;;;;;;;4897722;29;20025;-82
2022/07/26 07:57:19;;;;;;;6.55;4.80;;;;;;;;;;4896649;29;20124;-82
2022/07/26 07:59:45;;;;;;;6.05;4.80;;;;;;;;;;4896663;29;20102;-81
2022/07/26 08:02:14;;;;;;;5.60;4.30;;;;;;;;;;4897821;29;20507;-78
2022/07/26 08:04:40;;;;;;;5.53;4.75;;;;;;;;;;4896594;29;20032;-78
2022/07/26 08:07:07;;;;;;;6.68;4.68;;;;;;;;;;4898175;29;20021;-80
2022/07/26 08:09:33;;;;;;;5.05;4.47;;;;;;;;;;4900071;29;20055;-66
2022/07/26 08:11:59;;;;;;;5.72;4.43;;;;;;;;;;4899864;29;20028;-64
2022/07/26 08:14:25;;;;;;;5.60;4.45;;;;;;;;;;4899944;29;20108;-64
2022/07/26 08:16:51;;;;;;;8.82;4.65;;;;;;;;;;4899802;29;20025;-64
2022/07/26 08:19:18;;;;;;;5.53;4.07;;;;;;;;;;4900903;29;20032;-64
2022/07/26 08:21:45;;;;;;;5.68;4.82;;;;;;;;;;4899710;29;20143;-64
2022/07/26 08:24:11;;;;;;;6.47;5.38;;;;;;;;;;4902271;29;20032;-90
2022/07/26 08:26:37;;;;;;;6.88;4.95;;;;;;;;;;4899244;29;20028;-86
2022/07/26 08:29:03;;;;;;;6.28;4.85;;;;;;;;;;4900749;29;20080;-87
2022/07/26 08:31:30;;;;;;;6.57;5.00;;;;;;;;;;4899947;29;20482;-91
2022/07/26 08:33:56;;;;;;;5.68;4.70;;;;;;;;;;4900265;29;20036;-94
